sensor_id;sensor_type;location;lat;lon;timestamp;P1;durP1;ratioP1;P2;durP2;ratioP2
36353;SDS011;22383;51.114;13.666;2023-04-15T00:00:04;8.07;;;2.70;;
36353;SDS011;22383;51.114;13.666;2023-04-15T00:02:38;7.32;;;3.30;;
36353;SDS011;22383;51.114;13.666;2023-04-15T00:05:11;7.60;;;2.88;;
36353;SDS011;22383;51.114;13.666;2023-04-15T00:07:38;7.97;;;2.97;;
36353;SDS011;22383;51.114;13.666;2023-04-15T00:10:06;6.63;;;3.15;;
36353;SDS011;22383;51.114;13.666;2023-04-15T00:12:37;8.05;;;2.90;;
36353;SDS011;22383;51.114;13.666;2023-04-15T00:15:04;7.57;;;3.10;;
36353;SDS011;22383;51.114;13.666;2023-04-15T00:17:35;9.15;;;3.17;;
36353;SDS011;22383;51.114;13.666;2023-04-15T00:20:18;7.22;;;2.65;;
36353;SDS011;22383;51.114;13.666;2023-04-15T00:22:45;5.32;;;2.45;;
36353;SDS011;22383;51.114;13.666;2023-04-15T00:25:13;8.23;;;2.83;;
36353;SDS011;22383;51.114;13.666;2023-04-15T00:27:41;9.05;;;3.05;;
36353;SDS011;22383;51.114;13.666;2023-04-15T00:30:14;6.68;;;2.47;;
36353;SDS011;22383;51.114;13.666;2023-04-15T00:32:48;8.35;;;3.03;;
36353;SDS011;22383;51.114;13.666;2023-04-15T00:35:20;8.55;;;3.03;;
36353;SDS011;22383;51.114;13.666;2023-04-15T00:37:49;10.02;;;3.25;;
36353;SDS011;22383;51.114;13.666;2023-04-15T00:42:45;6.10;;;2.63;;
36353;SDS011;22383;51.114;13.666;2023-04-15T00:45:13;7.60;;;2.67;;
36353;SDS011;22383;51.114;13.666;2023-04-15T00:47:44;8.40;;;3.08;;
36353;SDS011;22383;51.114;13.666;2023-04-15T00:50:19;8.82;;;3.13;;
36353;SDS011;22383;51.114;13.666;2023-04-15T00:52:53;6.22;;;2.85;;
36353;SDS011;22383;51.114;13.666;2023-04-15T00:55:26;7.03;;;3.25;;
36353;SDS011;22383;51.114;13.666;2023-04-15T00:57:56;6.00;;;2.50;;
36353;SDS011;22383;51.114;13.666;2023-04-15T01:00:37;5.60;;;2.30;;
36353;SDS011;22383;51.114;13.666;2023-04-15T01:03:05;11.20;;;2.42;;
36353;SDS011;22383;51.114;13.666;2023-04-15T01:05:33;6.72;;;2.53;;
36353;SDS011;22383;51.114;13.666;2023-04-15T01:08:04;6.57;;;2.28;;
36353;SDS011;22383;51.114;13.666;2023-04-15T01:10:32;5.63;;;2.30;;
36353;SDS011;22383;51.114;13.666;2023-04-15T01:13:00;6.88;;;2.65;;
36353;SDS011;22383;51.114;13.666;2023-04-15T01:15:34;5.47;;;2.33;;
36353;SDS011;22383;51.114;13.666;2023-04-15T01:18:01;8.23;;;2.85;;
36353;SDS011;22383;51.114;13.666;2023-04-15T01:20:29;4.97;;;2.40;;
36353;SDS011;22383;51.114;13.666;2023-04-15T01:22:59;5.70;;;2.70;;
36353;SDS011;22383;51.114;13.666;2023-04-15T01:25:30;7.60;;;2.95;;
36353;SDS011;22383;51.114;13.666;2023-04-15T01:27:59;10.02;;;3.25;;
36353;SDS011;22383;51.114;13.666;2023-04-15T01:32:54;6.20;;;2.42;;
36353;SDS011;22383;51.114;13.666;2023-04-15T01:35:21;11.63;;;2.65;;
36353;SDS011;22383;51.114;13.666;2023-04-15T01:37:50;6.70;;;2.92;;
36353;SDS011;22383;51.114;13.666;2023-04-15T01:42:45;7.05;;;3.63;;
36353;SDS011;22383;51.114;13.666;2023-04-15T01:45:14;12.48;;;3.28;;
36353;SDS011;22383;51.114;13.666;2023-04-15T01:47:41;6.30;;;2.53;;
36353;SDS011;22383;51.114;13.666;2023-04-15T01:50:09;8.68;;;2.75;;
36353;SDS011;22383;51.114;13.666;2023-04-15T01:52:37;5.90;;;2.42;;
36353;SDS011;22383;51.114;13.666;2023-04-15T01:55:04;6.55;;;2.92;;
36353;SDS011;22383;51.114;13.666;2023-04-15T01:57:40;5.85;;;2.35;;
36353;SDS011;22383;51.114;13.666;2023-04-15T02:00:09;9.05;;;2.72;;
36353;SDS011;22383;51.114;13.666;2023-04-15T02:02:41;13.32;;;2.95;;
36353;SDS011;22383;51.114;13.666;2023-04-15T02:05:08;6.22;;;2.65;;
36353;SDS011;22383;51.114;13.666;2023-04-15T02:07:46;16.85;;;3.65;;
36353;SDS011;22383;51.114;13.666;2023-04-15T02:10:16;6.15;;;2.58;;
36353;SDS011;22383;51.114;13.666;2023-04-15T02:12:56;5.85;;;2.55;;
36353;SDS011;22383;51.114;13.666;2023-04-15T02:15:26;5.75;;;2.47;;
36353;SDS011;22383;51.114;13.666;2023-04-15T02:20:43;6.93;;;2.13;;
36353;SDS011;22383;51.114;13.666;2023-04-15T02:23:11;6.03;;;2.53;;
36353;SDS011;22383;51.114;13.666;2023-04-15T02:25:39;4.60;;;2.17;;
36353;SDS011;22383;51.114;13.666;2023-04-15T02:28:06;6.47;;;2.42;;
36353;SDS011;22383;51.114;13.666;2023-04-15T02:30:33;6.03;;;2.28;;
36353;SDS011;22383;51.114;13.666;2023-04-15T02:33:01;8.15;;;2.63;;
36353;SDS011;22383;51.114;13.666;2023-04-15T02:35:29;13.63;;;3.60;;
36353;SDS011;22383;51.114;13.666;2023-04-15T02:37:56;10.80;;;2.80;;
36353;SDS011;22383;51.114;13.666;2023-04-15T02:40:24;16.35;;;2.58;;
36353;SDS011;22383;51.114;13.666;2023-04-15T02:42:51;12.20;;;2.83;;
36353;SDS011;22383;51.114;13.666;2023-04-15T02:45:19;38.67;;;5.25;;
36353;SDS011;22383;51.114;13.666;2023-04-15T02:47:50;38.92;;;4.55;;
36353;SDS011;22383;51.114;13.666;2023-04-15T02:50:17;28.15;;;5.30;;
36353;SDS011;22383;51.114;13.666;2023-04-15T02:52:44;34.05;;;4.18;;
36353;SDS011;22383;51.114;13.666;2023-04-15T02:57:40;49.83;;;5.60;;
36353;SDS011;22383;51.114;13.666;2023-04-15T03:00:09;9.40;;;3.85;;
36353;SDS011;22383;51.114;13.666;2023-04-15T03:02:40;35.95;;;3.90;;
36353;SDS011;22383;51.114;13.666;2023-04-15T03:05:12;14.85;;;2.95;;
36353;SDS011;22383;51.114;13.666;2023-04-15T03:07:49;22.35;;;4.30;;
36353;SDS011;22383;51.114;13.666;2023-04-15T03:12:45;45.33;;;4.60;;
36353;SDS011;22383;51.114;13.666;2023-04-15T03:15:20;42.05;;;4.88;;
36353;SDS011;22383;51.114;13.666;2023-04-15T03:17:50;30.27;;;4.40;;
36353;SDS011;22383;51.114;13.666;2023-04-15T03:20:17;20.02;;;3.17;;
36353;SDS011;22383;51.114;13.666;2023-04-15T03:22:48;25.08;;;3.55;;
36353;SDS011;22383;51.114;13.666;2023-04-15T03:25:15;22.65;;;4.07;;
36353;SDS011;22383;51.114;13.666;2023-04-15T03:27:42;16.73;;;3.45;;
36353;SDS011;22383;51.114;13.666;2023-04-15T03:30:11;11.90;;;3.05;;
36353;SDS011;22383;51.114;13.666;2023-04-15T03:32:40;45.90;;;5.95;;
36353;SDS011;22383;51.114;13.666;2023-04-15T03:35:07;85.82;;;8.70;;
36353;SDS011;22383;51.114;13.666;2023-04-15T03:37:35;37.08;;;5.80;;
36353;SDS011;22383;51.114;13.666;2023-04-15T03:40:02;85.00;;;8.48;;
36353;SDS011;22383;51.114;13.666;2023-04-15T03:42:30;98.50;;;11.20;;
36353;SDS011;22383;51.114;13.666;2023-04-15T03:44:57;101.90;;;10.43;;
36353;SDS011;22383;51.114;13.666;2023-04-15T03:47:24;126.40;;;12.35;;
36353;SDS011;22383;51.114;13.666;2023-04-15T03:49:51;137.02;;;13.68;;
36353;SDS011;22383;51.114;13.666;2023-04-15T03:52:18;150.23;;;13.57;;
36353;SDS011;22383;51.114;13.666;2023-04-15T03:54:45;136.35;;;12.00;;
36353;SDS011;22383;51.114;13.666;2023-04-15T03:57:13;102.22;;;10.98;;
36353;SDS011;22383;51.114;13.666;2023-04-15T03:59:40;134.05;;;12.57;;
36353;SDS011;22383;51.114;13.666;2023-04-15T04:02:07;139.93;;;12.85;;
36353;SDS011;22383;51.114;13.666;2023-04-15T04:04:35;123.50;;;11.40;;
36353;SDS011;22383;51.114;13.666;2023-04-15T04:07:02;181.80;;;16.30;;
36353;SDS011;22383;51.114;13.666;2023-04-15T04:09:29;137.00;;;15.82;;
36353;SDS011;22383;51.114;13.666;2023-04-15T04:11:56;126.57;;;14.07;;
36353;SDS011;22383;51.114;13.666;2023-04-15T04:14:24;193.25;;;14.57;;
36353;SDS011;22383;51.114;13.666;2023-04-15T04:16:55;189.38;;;15.68;;
36353;SDS011;22383;51.114;13.666;2023-04-15T04:19:32;165.15;;;13.32;;
36353;SDS011;22383;51.114;13.666;2023-04-15T04:22:02;145.43;;;13.15;;
36353;SDS011;22383;51.114;13.666;2023-04-15T04:24:29;131.57;;;15.73;;
36353;SDS011;22383;51.114;13.666;2023-04-15T04:26:57;112.15;;;11.77;;
36353;SDS011;22383;51.114;13.666;2023-04-15T04:29:24;137.75;;;13.43;;
36353;SDS011;22383;51.114;13.666;2023-04-15T04:31:52;140.95;;;13.38;;
36353;SDS011;22383;51.114;13.666;2023-04-15T04:34:19;157.68;;;15.18;;
36353;SDS011;22383;51.114;13.666;2023-04-15T04:36:46;216.82;;;19.30;;
36353;SDS011;22383;51.114;13.666;2023-04-15T04:39:13;152.73;;;16.55;;
36353;SDS011;22383;51.114;13.666;2023-04-15T04:41:40;208.98;;;15.82;;
36353;SDS011;22383;51.114;13.666;2023-04-15T04:44:10;133.07;;;12.50;;
36353;SDS011;22383;51.114;13.666;2023-04-15T04:46:38;159.55;;;13.23;;
36353;SDS011;22383;51.114;13.666;2023-04-15T04:49:05;105.45;;;10.93;;
36353;SDS011;22383;51.114;13.666;2023-04-15T04:51:32;97.07;;;12.20;;
36353;SDS011;22383;51.114;13.666;2023-04-15T04:54:02;101.00;;;8.43;;
36353;SDS011;22383;51.114;13.666;2023-04-15T04:56:30;119.35;;;12.80;;
36353;SDS011;22383;51.114;13.666;2023-04-15T04:58:59;121.90;;;14.77;;
36353;SDS011;22383;51.114;13.666;2023-04-15T05:01:27;85.18;;;9.68;;
36353;SDS011;22383;51.114;13.666;2023-04-15T05:03:54;61.33;;;9.90;;
36353;SDS011;22383;51.114;13.666;2023-04-15T05:08:49;112.97;;;10.15;;
36353;SDS011;22383;51.114;13.666;2023-04-15T05:11:16;77.82;;;9.77;;
36353;SDS011;22383;51.114;13.666;2023-04-15T05:13:46;65.68;;;7.07;;
36353;SDS011;22383;51.114;13.666;2023-04-15T05:16:13;64.90;;;7.15;;
36353;SDS011;22383;51.114;13.666;2023-04-15T05:18:40;86.72;;;6.93;;
36353;SDS011;22383;51.114;13.666;2023-04-15T05:21:08;59.05;;;5.57;;
36353;SDS011;22383;51.114;13.666;2023-04-15T05:23:47;32.90;;;5.70;;
36353;SDS011;22383;51.114;13.666;2023-04-15T05:26:14;45.22;;;5.05;;
36353;SDS011;22383;51.114;13.666;2023-04-15T05:28:42;65.63;;;7.72;;
36353;SDS011;22383;51.114;13.666;2023-04-15T05:31:09;92.68;;;5.95;;
36353;SDS011;22383;51.114;13.666;2023-04-15T05:33:36;59.42;;;7.03;;
36353;SDS011;22383;51.114;13.666;2023-04-15T05:36:04;93.47;;;9.50;;
36353;SDS011;22383;51.114;13.666;2023-04-15T05:38:31;26.63;;;3.45;;
36353;SDS011;22383;51.114;13.666;2023-04-15T05:40:58;91.15;;;9.50;;
36353;SDS011;22383;51.114;13.666;2023-04-15T05:43:25;161.27;;;16.65;;
36353;SDS011;22383;51.114;13.666;2023-04-15T05:45:52;95.22;;;9.85;;
36353;SDS011;22383;51.114;13.666;2023-04-15T05:48:20;137.20;;;12.40;;
36353;SDS011;22383;51.114;13.666;2023-04-15T05:50:47;75.80;;;8.90;;
36353;SDS011;22383;51.114;13.666;2023-04-15T05:53:36;164.43;;;18.13;;
36353;SDS011;22383;51.114;13.666;2023-04-15T05:56:03;96.70;;;9.50;;
36353;SDS011;22383;51.114;13.666;2023-04-15T05:58:30;267.80;;;23.23;;
36353;SDS011;22383;51.114;13.666;2023-04-15T06:00:58;249.07;;;23.08;;
36353;SDS011;22383;51.114;13.666;2023-04-15T06:03:25;8.82;;;2.03;;
36353;SDS011;22383;51.114;13.666;2023-04-15T06:05:55;113.95;;;13.48;;
36353;SDS011;22383;51.114;13.666;2023-04-15T06:08:27;250.57;;;25.65;;
36353;SDS011;22383;51.114;13.666;2023-04-15T06:10:55;263.00;;;26.08;;
36353;SDS011;22383;51.114;13.666;2023-04-15T06:13:27;211.20;;;20.60;;
36353;SDS011;22383;51.114;13.666;2023-04-15T06:15:57;197.50;;;21.80;;
36353;SDS011;22383;51.114;13.666;2023-04-15T06:18:25;31.05;;;5.30;;
36353;SDS011;22383;51.114;13.666;2023-04-15T06:20:52;263.60;;;23.73;;
36353;SDS011;22383;51.114;13.666;2023-04-15T06:23:23;267.88;;;24.95;;
36353;SDS011;22383;51.114;13.666;2023-04-15T06:25:53;170.25;;;15.50;;
36353;SDS011;22383;51.114;13.666;2023-04-15T06:28:20;83.32;;;9.02;;
36353;SDS011;22383;51.114;13.666;2023-04-15T06:30:47;75.40;;;6.43;;
36353;SDS011;22383;51.114;13.666;2023-04-15T06:33:15;102.78;;;8.50;;
36353;SDS011;22383;51.114;13.666;2023-04-15T06:35:42;116.68;;;12.98;;
36353;SDS011;22383;51.114;13.666;2023-04-15T06:38:09;61.47;;;8.48;;
36353;SDS011;22383;51.114;13.666;2023-04-15T06:40:37;88.63;;;9.98;;
36353;SDS011;22383;51.114;13.666;2023-04-15T06:43:04;124.95;;;13.85;;
36353;SDS011;22383;51.114;13.666;2023-04-15T06:47:59;65.30;;;8.43;;
36353;SDS011;22383;51.114;13.666;2023-04-15T06:50:29;103.03;;;12.57;;
36353;SDS011;22383;51.114;13.666;2023-04-15T06:52:57;275.23;;;26.13;;
36353;SDS011;22383;51.114;13.666;2023-04-15T06:55:24;49.30;;;6.18;;
36353;SDS011;22383;51.114;13.666;2023-04-15T06:57:52;154.18;;;16.40;;
36353;SDS011;22383;51.114;13.666;2023-04-15T07:00:19;165.82;;;17.15;;
36353;SDS011;22383;51.114;13.666;2023-04-15T07:02:46;96.78;;;8.40;;
36353;SDS011;22383;51.114;13.666;2023-04-15T07:05:13;228.68;;;18.02;;
36353;SDS011;22383;51.114;13.666;2023-04-15T07:07:40;163.55;;;10.90;;
36353;SDS011;22383;51.114;13.666;2023-04-15T07:10:08;75.47;;;9.38;;
36353;SDS011;22383;51.114;13.666;2023-04-15T07:12:35;343.98;;;27.33;;
36353;SDS011;22383;51.114;13.666;2023-04-15T07:15:03;16.55;;;3.25;;
36353;SDS011;22383;51.114;13.666;2023-04-15T07:17:30;22.92;;;2.83;;
36353;SDS011;22383;51.114;13.666;2023-04-15T07:19:58;95.93;;;9.73;;
36353;SDS011;22383;51.114;13.666;2023-04-15T07:22:25;11.18;;;1.67;;
36353;SDS011;22383;51.114;13.666;2023-04-15T07:24:52;152.40;;;13.57;;
36353;SDS011;22383;51.114;13.666;2023-04-15T07:29:48;1.70;;;1.10;;
36353;SDS011;22383;51.114;13.666;2023-04-15T07:32:17;1.25;;;0.80;;
36353;SDS011;22383;51.114;13.666;2023-04-15T07:34:44;1.02;;;0.65;;
36353;SDS011;22383;51.114;13.666;2023-04-15T07:37:14;0.98;;;0.57;;
36353;SDS011;22383;51.114;13.666;2023-04-15T07:39:44;1.10;;;0.73;;
36353;SDS011;22383;51.114;13.666;2023-04-15T07:42:13;1.67;;;1.00;;
36353;SDS011;22383;51.114;13.666;2023-04-15T07:44:44;0.95;;;0.57;;
36353;SDS011;22383;51.114;13.666;2023-04-15T07:47:11;2.97;;;0.70;;
36353;SDS011;22383;51.114;13.666;2023-04-15T07:49:40;1.83;;;0.90;;
36353;SDS011;22383;51.114;13.666;2023-04-15T07:52:09;1.70;;;0.80;;
36353;SDS011;22383;51.114;13.666;2023-04-15T07:54:40;2.65;;;1.30;;
36353;SDS011;22383;51.114;13.666;2023-04-15T07:57:07;1.63;;;1.00;;
36353;SDS011;22383;51.114;13.666;2023-04-15T07:59:34;2.40;;;1.30;;
36353;SDS011;22383;51.114;13.666;2023-04-15T08:02:01;2.17;;;0.93;;
36353;SDS011;22383;51.114;13.666;2023-04-15T08:04:29;2.80;;;1.15;;
36353;SDS011;22383;51.114;13.666;2023-04-15T08:06:57;3.20;;;1.13;;
36353;SDS011;22383;51.114;13.666;2023-04-15T08:09:24;2.25;;;1.17;;
36353;SDS011;22383;51.114;13.666;2023-04-15T08:11:53;2.22;;;0.93;;
36353;SDS011;22383;51.114;13.666;2023-04-15T08:14:20;2.20;;;1.02;;
36353;SDS011;22383;51.114;13.666;2023-04-15T08:16:48;2.60;;;1.20;;
36353;SDS011;22383;51.114;13.666;2023-04-15T08:19:18;1.17;;;0.70;;
36353;SDS011;22383;51.114;13.666;2023-04-15T08:21:45;1.75;;;0.80;;
36353;SDS011;22383;51.114;13.666;2023-04-15T08:24:12;1.15;;;0.50;;
36353;SDS011;22383;51.114;13.666;2023-04-15T08:26:40;2.08;;;0.98;;
36353;SDS011;22383;51.114;13.666;2023-04-15T08:29:07;2.70;;;0.63;;
36353;SDS011;22383;51.114;13.666;2023-04-15T08:31:35;2.10;;;1.10;;
36353;SDS011;22383;51.114;13.666;2023-04-15T08:34:02;2.03;;;0.75;;
36353;SDS011;22383;51.114;13.666;2023-04-15T08:36:29;2.88;;;0.80;;
36353;SDS011;22383;51.114;13.666;2023-04-15T08:38:58;1.48;;;0.70;;
36353;SDS011;22383;51.114;13.666;2023-04-15T08:41:27;3.25;;;1.33;;
36353;SDS011;22383;51.114;13.666;2023-04-15T08:44:01;2.85;;;1.90;;
36353;SDS011;22383;51.114;13.666;2023-04-15T08:46:30;4.35;;;2.40;;
36353;SDS011;22383;51.114;13.666;2023-04-15T08:49:02;1.77;;;1.05;;
36353;SDS011;22383;51.114;13.666;2023-04-15T08:51:31;1.70;;;1.10;;
36353;SDS011;22383;51.114;13.666;2023-04-15T08:53:59;1.08;;;0.63;;
36353;SDS011;22383;51.114;13.666;2023-04-15T08:56:29;1.02;;;0.80;;
36353;SDS011;22383;51.114;13.666;2023-04-15T08:59:01;1.65;;;0.90;;
36353;SDS011;22383;51.114;13.666;2023-04-15T09:01:30;1.98;;;0.75;;
36353;SDS011;22383;51.114;13.666;2023-04-15T09:03:58;1.50;;;0.50;;
36353;SDS011;22383;51.114;13.666;2023-04-15T09:06:25;2.90;;;1.35;;
36353;SDS011;22383;51.114;13.666;2023-04-15T09:08:53;2.30;;;1.20;;
36353;SDS011;22383;51.114;13.666;2023-04-15T09:11:20;1.20;;;0.70;;
36353;SDS011;22383;51.114;13.666;2023-04-15T09:13:48;1.05;;;0.68;;
36353;SDS011;22383;51.114;13.666;2023-04-15T09:16:15;0.80;;;0.60;;
36353;SDS011;22383;51.114;13.666;2023-04-15T09:18:43;1.10;;;0.70;;
36353;SDS011;22383;51.114;13.666;2023-04-15T09:21:11;0.57;;;0.52;;
36353;SDS011;22383;51.114;13.666;2023-04-15T09:23:58;0.70;;;0.50;;
36353;SDS011;22383;51.114;13.666;2023-04-15T09:29:05;2.10;;;0.63;;
36353;SDS011;22383;51.114;13.666;2023-04-15T09:31:35;0.60;;;0.45;;
36353;SDS011;22383;51.114;13.666;2023-04-15T09:34:05;0.98;;;0.68;;
36353;SDS011;22383;51.114;13.666;2023-04-15T09:39:16;1.83;;;0.73;;
36353;SDS011;22383;51.114;13.666;2023-04-15T09:41:43;4.75;;;1.85;;
36353;SDS011;22383;51.114;13.666;2023-04-15T09:44:21;2.95;;;1.60;;
36353;SDS011;22383;51.114;13.666;2023-04-15T09:46:52;5.13;;;2.70;;
36353;SDS011;22383;51.114;13.666;2023-04-15T09:49:19;3.78;;;2.35;;
36353;SDS011;22383;51.114;13.666;2023-04-15T09:51:46;4.68;;;2.40;;
36353;SDS011;22383;51.114;13.666;2023-04-15T09:54:35;5.75;;;3.00;;
36353;SDS011;22383;51.114;13.666;2023-04-15T09:57:07;4.55;;;2.55;;
36353;SDS011;22383;51.114;13.666;2023-04-15T09:59:36;5.53;;;3.08;;
36353;SDS011;22383;51.114;13.666;2023-04-15T10:02:10;6.10;;;2.83;;
36353;SDS011;22383;51.114;13.666;2023-04-15T10:04:39;5.10;;;2.78;;
36353;SDS011;22383;51.114;13.666;2023-04-15T10:07:08;6.55;;;3.25;;
36353;SDS011;22383;51.114;13.666;2023-04-15T10:12:04;5.32;;;2.60;;
36353;SDS011;22383;51.114;13.666;2023-04-15T10:14:32;5.85;;;2.88;;
36353;SDS011;22383;51.114;13.666;2023-04-15T10:17:02;5.43;;;2.85;;
36353;SDS011;22383;51.114;13.666;2023-04-15T10:19:32;5.70;;;3.00;;
36353;SDS011;22383;51.114;13.666;2023-04-15T10:22:02;5.88;;;3.00;;
36353;SDS011;22383;51.114;13.666;2023-04-15T10:24:30;8.05;;;3.53;;
36353;SDS011;22383;51.114;13.666;2023-04-15T10:27:02;6.18;;;3.05;;
36353;SDS011;22383;51.114;13.666;2023-04-15T10:29:35;6.05;;;3.08;;
36353;SDS011;22383;51.114;13.666;2023-04-15T10:32:09;6.43;;;3.22;;
36353;SDS011;22383;51.114;13.666;2023-04-15T10:34:39;4.72;;;3.13;;
36353;SDS011;22383;51.114;13.666;2023-04-15T10:37:08;6.70;;;3.00;;
36353;SDS011;22383;51.114;13.666;2023-04-15T10:39:42;4.38;;;2.58;;
36353;SDS011;22383;51.114;13.666;2023-04-15T10:42:11;5.35;;;2.95;;
36353;SDS011;22383;51.114;13.666;2023-04-15T10:44:43;10.38;;;3.22;;
36353;SDS011;22383;51.114;13.666;2023-04-15T10:47:16;6.15;;;3.33;;
36353;SDS011;22383;51.114;13.666;2023-04-15T10:49:49;7.28;;;3.80;;
36353;SDS011;22383;51.114;13.666;2023-04-15T10:52:24;6.85;;;3.58;;
36353;SDS011;22383;51.114;13.666;2023-04-15T10:57:37;7.50;;;3.63;;
36353;SDS011;22383;51.114;13.666;2023-04-15T11:00:10;8.88;;;3.50;;
36353;SDS011;22383;51.114;13.666;2023-04-15T11:02:46;7.85;;;3.85;;
36353;SDS011;22383;51.114;13.666;2023-04-15T11:05:19;5.25;;;3.03;;
36353;SDS011;22383;51.114;13.666;2023-04-15T11:12:52;5.60;;;3.25;;
36353;SDS011;22383;51.114;13.666;2023-04-15T11:15:33;5.22;;;3.17;;
36353;SDS011;22383;51.114;13.666;2023-04-15T11:20:55;4.47;;;2.78;;
36353;SDS011;22383;51.114;13.666;2023-04-15T11:23:37;7.93;;;3.65;;
36353;SDS011;22383;51.114;13.666;2023-04-15T11:26:15;7.30;;;3.50;;
36353;SDS011;22383;51.114;13.666;2023-04-15T11:28:44;5.03;;;3.00;;
36353;SDS011;22383;51.114;13.666;2023-04-15T11:31:22;5.28;;;3.17;;
36353;SDS011;22383;51.114;13.666;2023-04-15T11:34:02;6.10;;;3.42;;
36353;SDS011;22383;51.114;13.666;2023-04-15T11:36:31;5.05;;;2.75;;
36353;SDS011;22383;51.114;13.666;2023-04-15T11:38:59;6.20;;;3.00;;
36353;SDS011;22383;51.114;13.666;2023-04-15T11:41:26;5.30;;;2.97;;
36353;SDS011;22383;51.114;13.666;2023-04-15T11:43:54;5.25;;;3.10;;
36353;SDS011;22383;51.114;13.666;2023-04-15T11:46:27;4.68;;;2.67;;
36353;SDS011;22383;51.114;13.666;2023-04-15T11:48:58;5.57;;;2.92;;
36353;SDS011;22383;51.114;13.666;2023-04-15T11:54:02;5.32;;;2.63;;
36353;SDS011;22383;51.114;13.666;2023-04-15T11:56:30;4.75;;;2.60;;
36353;SDS011;22383;51.114;13.666;2023-04-15T11:58:58;3.75;;;2.30;;
36353;SDS011;22383;51.114;13.666;2023-04-15T12:01:36;3.35;;;2.20;;
36353;SDS011;22383;51.114;13.666;2023-04-15T12:04:12;4.82;;;2.58;;
36353;SDS011;22383;51.114;13.666;2023-04-15T12:06:41;3.92;;;2.33;;
36353;SDS011;22383;51.114;13.666;2023-04-15T12:09:13;3.03;;;1.90;;
36353;SDS011;22383;51.114;13.666;2023-04-15T12:11:48;5.72;;;3.13;;
36353;SDS011;22383;51.114;13.666;2023-04-15T12:14:30;3.85;;;2.42;;
36353;SDS011;22383;51.114;13.666;2023-04-15T12:17:00;2.95;;;2.00;;
36353;SDS011;22383;51.114;13.666;2023-04-15T12:19:39;5.78;;;2.55;;
36353;SDS011;22383;51.114;13.666;2023-04-15T12:22:16;2.72;;;1.83;;
36353;SDS011;22383;51.114;13.666;2023-04-15T12:24:45;3.17;;;1.92;;
36353;SDS011;22383;51.114;13.666;2023-04-15T12:27:15;2.13;;;1.83;;
36353;SDS011;22383;51.114;13.666;2023-04-15T12:29:44;3.78;;;2.13;;
36353;SDS011;22383;51.114;13.666;2023-04-15T12:32:13;3.38;;;1.92;;
36353;SDS011;22383;51.114;13.666;2023-04-15T12:34:52;4.32;;;1.85;;
36353;SDS011;22383;51.114;13.666;2023-04-15T12:37:22;2.28;;;1.58;;
36353;SDS011;22383;51.114;13.666;2023-04-15T12:39:51;2.75;;;1.95;;
36353;SDS011;22383;51.114;13.666;2023-04-15T12:42:20;2.70;;;1.65;;
36353;SDS011;22383;51.114;13.666;2023-04-15T12:44:58;4.38;;;1.65;;
36353;SDS011;22383;51.114;13.666;2023-04-15T12:47:25;2.80;;;1.35;;
36353;SDS011;22383;51.114;13.666;2023-04-15T12:49:53;1.98;;;1.25;;
36353;SDS011;22383;51.114;13.666;2023-04-15T12:52:23;3.20;;;1.95;;
36353;SDS011;22383;51.114;13.666;2023-04-15T12:54:51;2.30;;;1.75;;
36353;SDS011;22383;51.114;13.666;2023-04-15T12:57:21;2.33;;;1.60;;
36353;SDS011;22383;51.114;13.666;2023-04-15T12:59:49;4.80;;;2.47;;
36353;SDS011;22383;51.114;13.666;2023-04-15T13:02:20;2.97;;;1.60;;
36353;SDS011;22383;51.114;13.666;2023-04-15T13:04:51;2.45;;;1.52;;
36353;SDS011;22383;51.114;13.666;2023-04-15T13:07:22;2.97;;;1.42;;
36353;SDS011;22383;51.114;13.666;2023-04-15T13:09:49;1.73;;;1.45;;
36353;SDS011;22383;51.114;13.666;2023-04-15T13:12:16;2.30;;;1.38;;
36353;SDS011;22383;51.114;13.666;2023-04-15T13:14:44;4.57;;;2.05;;
36353;SDS011;22383;51.114;13.666;2023-04-15T13:17:11;2.05;;;1.38;;
36353;SDS011;22383;51.114;13.666;2023-04-15T13:19:38;4.03;;;1.67;;
36353;SDS011;22383;51.114;13.666;2023-04-15T13:22:06;4.13;;;1.83;;
36353;SDS011;22383;51.114;13.666;2023-04-15T13:27:05;5.40;;;1.60;;
36353;SDS011;22383;51.114;13.666;2023-04-15T13:29:34;2.33;;;1.30;;
36353;SDS011;22383;51.114;13.666;2023-04-15T13:32:01;2.63;;;1.60;;
36353;SDS011;22383;51.114;13.666;2023-04-15T13:34:31;2.22;;;1.48;;
36353;SDS011;22383;51.114;13.666;2023-04-15T13:37:06;2.80;;;1.63;;
36353;SDS011;22383;51.114;13.666;2023-04-15T13:39:35;5.93;;;2.05;;
36353;SDS011;22383;51.114;13.666;2023-04-15T13:42:04;2.03;;;1.40;;
36353;SDS011;22383;51.114;13.666;2023-04-15T13:44:31;2.88;;;1.63;;
36353;SDS011;22383;51.114;13.666;2023-04-15T13:46:58;2.95;;;1.60;;
36353;SDS011;22383;51.114;13.666;2023-04-15T13:49:29;2.67;;;1.45;;
36353;SDS011;22383;51.114;13.666;2023-04-15T13:51:57;4.25;;;2.00;;
36353;SDS011;22383;51.114;13.666;2023-04-15T13:54:24;1.95;;;1.25;;
36353;SDS011;22383;51.114;13.666;2023-04-15T13:57:03;2.13;;;1.40;;
36353;SDS011;22383;51.114;13.666;2023-04-15T13:59:32;2.13;;;1.60;;
36353;SDS011;22383;51.114;13.666;2023-04-15T14:02:01;2.40;;;1.45;;
36353;SDS011;22383;51.114;13.666;2023-04-15T14:04:29;2.60;;;1.45;;
36353;SDS011;22383;51.114;13.666;2023-04-15T14:06:57;2.40;;;1.30;;
36353;SDS011;22383;51.114;13.666;2023-04-15T14:09:28;2.40;;;1.67;;
36353;SDS011;22383;51.114;13.666;2023-04-15T14:14:25;2.10;;;1.65;;
36353;SDS011;22383;51.114;13.666;2023-04-15T14:16:52;3.78;;;1.55;;
36353;SDS011;22383;51.114;13.666;2023-04-15T14:19:19;2.53;;;1.45;;
36353;SDS011;22383;51.114;13.666;2023-04-15T14:21:46;1.73;;;1.38;;
36353;SDS011;22383;51.114;13.666;2023-04-15T14:24:13;2.33;;;1.58;;
36353;SDS011;22383;51.114;13.666;2023-04-15T14:26:41;3.80;;;1.58;;
36353;SDS011;22383;51.114;13.666;2023-04-15T14:29:09;5.20;;;1.42;;
36353;SDS011;22383;51.114;13.666;2023-04-15T14:31:37;3.83;;;1.33;;
36353;SDS011;22383;51.114;13.666;2023-04-15T14:34:06;3.63;;;1.52;;
36353;SDS011;22383;51.114;13.666;2023-04-15T14:36:34;5.93;;;2.28;;
36353;SDS011;22383;51.114;13.666;2023-04-15T14:39:01;38.33;;;11.23;;
36353;SDS011;22383;51.114;13.666;2023-04-15T14:41:30;22.15;;;6.57;;
36353;SDS011;22383;51.114;13.666;2023-04-15T14:43:57;15.82;;;4.47;;
36353;SDS011;22383;51.114;13.666;2023-04-15T14:46:24;14.98;;;2.92;;
36353;SDS011;22383;51.114;13.666;2023-04-15T14:48:51;19.40;;;5.30;;
36353;SDS011;22383;51.114;13.666;2023-04-15T14:51:19;5.20;;;2.60;;
36353;SDS011;22383;51.114;13.666;2023-04-15T14:53:46;5.88;;;3.30;;
36353;SDS011;22383;51.114;13.666;2023-04-15T14:56:13;2.15;;;1.63;;
36353;SDS011;22383;51.114;13.666;2023-04-15T14:58:40;2.85;;;1.52;;
36353;SDS011;22383;51.114;13.666;2023-04-15T15:01:08;4.30;;;1.83;;
36353;SDS011;22383;51.114;13.666;2023-04-15T15:03:36;5.25;;;2.03;;
36353;SDS011;22383;51.114;13.666;2023-04-15T15:06:03;5.18;;;1.85;;
36353;SDS011;22383;51.114;13.666;2023-04-15T15:08:30;6.55;;;2.40;;
36353;SDS011;22383;51.114;13.666;2023-04-15T15:10:58;5.10;;;1.95;;
36353;SDS011;22383;51.114;13.666;2023-04-15T15:13:25;3.00;;;1.88;;
36353;SDS011;22383;51.114;13.666;2023-04-15T15:15:52;3.75;;;1.88;;
36353;SDS011;22383;51.114;13.666;2023-04-15T15:18:19;4.70;;;1.77;;
36353;SDS011;22383;51.114;13.666;2023-04-15T15:20:46;4.07;;;1.92;;
36353;SDS011;22383;51.114;13.666;2023-04-15T15:23:14;3.00;;;1.75;;
36353;SDS011;22383;51.114;13.666;2023-04-15T15:25:41;5.35;;;2.35;;